createdAt,value
2019-05-22T00:01:02.949Z,80.93
2019-05-22T00:03:31.072Z,87.43
2019-05-22T00:05:57.747Z,86.00
2019-05-22T00:08:25.031Z,99.90
2019-05-22T00:10:53.238Z,91.63
2019-05-22T00:13:21.328Z,105.37
2019-05-22T00:15:49.497Z,93.83
2019-05-22T00:18:17.206Z,87.23
2019-05-22T00:20:44.584Z,87.90
2019-05-22T00:23:11.737Z,88.30
2019-05-22T00:25:38.138Z,97.30
2019-05-22T00:28:06.246Z,102.37
2019-05-22T00:30:34.489Z,102.40
2019-05-22T00:33:00.633Z,99.03
2019-05-22T00:35:28.612Z,104.57
2019-05-22T00:37:55.782Z,106.83
2019-05-22T00:40:23.894Z,103.63
2019-05-22T00:43:03.406Z,103.67
2019-05-22T00:45:21.861Z,100.47
2019-05-22T00:47:50.490Z,88.03
2019-05-22T00:50:19.271Z,94.03
2019-05-22T00:52:47.357Z,94.10
2019-05-22T00:55:15.814Z,96.87
2019-05-22T00:57:44.839Z,98.80
2019-05-22T01:00:13.623Z,87.70
2019-05-22T01:02:42.307Z,69.80
2019-05-22T01:05:08.789Z,58.77
2019-05-22T01:07:36.871Z,62.97
2019-05-22T01:10:06.378Z,63.00
2019-05-22T01:12:34.986Z,56.27
2019-05-22T01:15:03.874Z,54.63
2019-05-22T01:17:32.866Z,56.70
2019-05-22T01:20:01.165Z,65.80
2019-05-22T01:22:28.220Z,57.70
2019-05-22T01:24:56.441Z,65.07
2019-05-22T01:27:23.819Z,66.33
2019-05-22T01:29:49.998Z,81.57
2019-05-22T01:32:18.106Z,71.20
2019-05-22T01:34:44.683Z,61.70
2019-05-22T01:37:12.863Z,51.33
2019-05-22T01:39:44.986Z,56.47
2019-05-22T01:42:12.379Z,61.47
2019-05-22T01:44:38.550Z,70.07
2019-05-22T01:47:09.606Z,73.13
2019-05-22T01:49:37.176Z,69.87
2019-05-22T01:52:03.351Z,74.90
2019-05-22T01:54:29.768Z,60.83
2019-05-22T01:56:57.850Z,63.83
2019-05-22T01:59:26.166Z,65.43
2019-05-22T02:01:53.026Z,57.90
2019-05-22T02:04:21.404Z,53.77
2019-05-22T02:06:47.580Z,62.13
2019-05-22T02:09:17.605Z,56.80
2019-05-22T02:11:45.883Z,60.30
2019-05-22T02:14:13.662Z,59.23
2019-05-22T02:16:55.645Z,74.40
2019-05-22T02:19:11.358Z,104.17
2019-05-22T02:21:37.540Z,79.33
2019-05-22T02:24:04.555Z,95.40
2019-05-22T02:26:31.535Z,204.53
2019-05-22T02:28:59.717Z,119.80
2019-05-22T02:31:26.234Z,72.00
2019-05-22T02:33:54.479Z,102.97
2019-05-22T02:36:20.877Z,62.83
2019-05-22T02:38:47.077Z,66.93
2019-05-22T02:41:14.389Z,113.03
2019-05-22T02:43:41.328Z,82.20
2019-05-22T02:46:08.639Z,104.07
2019-05-22T02:48:34.911Z,190.87
2019-05-22T02:51:01.390Z,192.37
2019-05-22T02:53:28.388Z,157.03
2019-05-22T02:55:55.165Z,51.47
2019-05-22T02:58:22.155Z,167.13
2019-05-22T03:00:52.859Z,137.63
2019-05-22T03:03:19.946Z,50.40
2019-05-22T03:05:46.314Z,50.47
2019-05-22T03:08:12.826Z,45.33
2019-05-22T03:10:39.299Z,48.97
2019-05-22T03:13:06.078Z,41.73
2019-05-22T03:15:32.385Z,38.00
2019-05-22T03:17:59.061Z,41.70
2019-05-22T03:20:25.940Z,46.03
2019-05-22T03:22:56.667Z,51.63
2019-05-22T03:25:23.542Z,37.60
2019-05-22T03:27:49.825Z,37.13
2019-05-22T03:30:21.080Z,29.63
2019-05-22T03:32:48.685Z,37.87
2019-05-22T03:35:16.425Z,40.43
2019-05-22T03:37:42.732Z,40.33
2019-05-22T03:40:09.953Z,42.00
2019-05-22T03:42:36.603Z,41.83
2019-05-22T03:45:07.331Z,45.90
2019-05-22T03:47:35.303Z,47.63
2019-05-22T03:50:04.391Z,53.53
2019-05-22T03:52:30.602Z,61.03
2019-05-22T03:54:56.872Z,68.53
2019-05-22T03:57:23.258Z,94.17
2019-05-22T03:59:50.060Z,87.77
2019-05-22T04:02:16.654Z,77.97
2019-05-22T04:04:43.583Z,76.03
2019-05-22T04:07:12.091Z,81.47
2019-05-22T04:09:39.671Z,69.33
2019-05-22T04:12:07.659Z,81.97
2019-05-22T04:14:35.062Z,95.53
2019-05-22T04:17:02.839Z,82.10
2019-05-22T04:19:45.107Z,77.33
2019-05-22T04:21:57.520Z,74.27
2019-05-22T04:24:23.698Z,81.23
2019-05-22T04:26:50.679Z,74.77
2019-05-22T04:29:17.860Z,75.73
2019-05-22T04:31:49.090Z,79.07
2019-05-22T04:34:16.276Z,75.57
2019-05-22T04:36:43.392Z,68.07
2019-05-22T04:39:14.372Z,62.63
2019-05-22T04:41:40.696Z,56.47
2019-05-22T04:44:06.903Z,63.03
2019-05-22T04:46:33.092Z,49.63
2019-05-22T04:48:59.678Z,50.87
2019-05-22T04:51:26.750Z,52.33
2019-05-22T04:53:53.511Z,58.83
2019-05-22T04:56:19.896Z,59.30
2019-05-22T04:58:47.051Z,52.40
2019-05-22T05:01:13.629Z,51.27
2019-05-22T05:03:40.882Z,46.83
2019-05-22T05:06:07.511Z,42.50
2019-05-22T05:08:34.695Z,41.97
2019-05-22T05:11:02.803Z,48.63
2019-05-22T05:13:29.524Z,41.57
2019-05-22T05:15:55.852Z,47.43
2019-05-22T05:18:22.278Z,57.87
2019-05-22T05:20:48.586Z,53.00
2019-05-22T05:23:15.073Z,54.63
2019-05-22T05:25:41.343Z,56.27
2019-05-22T05:28:08.443Z,56.90
2019-05-22T05:30:35.062Z,41.97
2019-05-22T05:33:01.581Z,50.77
2019-05-22T05:35:28.657Z,57.03
2019-05-22T05:37:55.042Z,54.07
2019-05-22T05:40:25.149Z,66.60
2019-05-22T05:42:52.757Z,65.00
2019-05-22T05:45:18.908Z,61.53
2019-05-22T05:47:45.111Z,67.10
2019-05-22T05:50:12.598Z,55.07
2019-05-22T05:52:39.783Z,64.40
2019-05-22T05:55:07.172Z,54.57
2019-05-22T05:57:33.383Z,60.23
2019-05-22T06:00:00.860Z,62.07
2019-05-22T06:02:27.042Z,56.83
2019-05-22T06:04:53.775Z,72.07
2019-05-22T06:07:21.253Z,84.03
2019-05-22T06:09:51.713Z,74.40
2019-05-22T06:12:18.450Z,79.73
2019-05-22T06:14:45.006Z,87.87
2019-05-22T06:17:16.903Z,79.57
2019-05-22T06:19:47.319Z,68.73
2019-05-22T06:22:13.501Z,76.60
2019-05-22T06:24:43.482Z,78.10
2019-05-22T06:27:12.410Z,69.97
2019-05-22T06:29:42.814Z,66.83
2019-05-22T06:32:10.709Z,60.33
2019-05-22T06:34:37.333Z,69.07
2019-05-22T06:37:07.367Z,69.87
2019-05-22T06:39:34.354Z,69.07
2019-05-22T06:42:00.870Z,63.83
2019-05-22T06:44:30.050Z,67.87
2019-05-22T06:46:57.122Z,62.37
2019-05-22T06:49:27.138Z,71.47
2019-05-22T06:51:53.318Z,66.63
2019-05-22T06:54:19.494Z,72.57
2019-05-22T06:56:45.784Z,63.83
2019-05-22T06:59:12.176Z,63.43
2019-05-22T07:01:38.363Z,95.50
2019-05-22T07:04:04.668Z,60.33
2019-05-22T07:06:31.309Z,72.33
2019-05-22T07:08:57.487Z,62.97
2019-05-22T07:11:24.115Z,60.80
2019-05-22T07:13:51.287Z,73.33
2019-05-22T07:16:17.753Z,65.13
2019-05-22T07:18:45.261Z,74.80
2019-05-22T07:21:11.840Z,74.20
2019-05-22T07:23:38.103Z,72.43
2019-05-22T07:26:05.934Z,70.40
2019-05-22T07:28:33.929Z,71.77
2019-05-22T07:31:00.683Z,62.87
2019-05-22T07:33:27.359Z,56.17
2019-05-22T07:36:09.384Z,54.73
2019-05-22T07:38:22.814Z,59.47
2019-05-22T07:40:50.357Z,56.70
2019-05-22T07:43:18.550Z,51.73
2019-05-22T07:45:45.147Z,42.93
2019-05-22T07:48:12.256Z,51.20
2019-05-22T07:50:40.841Z,56.50
2019-05-22T07:53:07.418Z,31.73
2019-05-22T07:55:34.039Z,34.63
2019-05-22T07:58:04.035Z,24.17
2019-05-22T08:00:30.913Z,32.20
2019-05-22T08:02:57.115Z,23.63
2019-05-22T08:05:24.972Z,34.47
2019-05-22T08:07:51.926Z,46.73
2019-05-22T08:10:20.442Z,42.27
2019-05-22T08:12:46.714Z,37.20
2019-05-22T08:15:13.293Z,54.20
2019-05-22T08:17:40.191Z,32.57
2019-05-22T08:20:06.504Z,27.70
2019-05-22T08:22:34.653Z,36.83
2019-05-22T08:25:00.874Z,44.53
2019-05-22T08:27:27.134Z,64.07
2019-05-22T08:29:56.746Z,41.17
2019-05-22T08:32:21.240Z,29.40
2019-05-22T08:34:47.475Z,24.07
2019-05-22T08:37:16.561Z,26.97
2019-05-22T08:39:42.999Z,31.70
2019-05-22T08:42:09.519Z,107.70
2019-05-22T08:44:37.211Z,34.83
2019-05-22T08:47:04.023Z,34.53
2019-05-22T08:49:30.788Z,32.47
2019-05-22T08:51:57.263Z,41.20
2019-05-22T08:54:23.978Z,38.53
2019-05-22T08:56:50.964Z,39.20
2019-05-22T08:59:19.914Z,40.73
2019-05-22T09:01:45.162Z,44.60
2019-05-22T09:04:12.145Z,62.83
2019-05-22T09:06:38.460Z,40.57
2019-05-22T09:09:05.444Z,55.93
2019-05-22T09:11:31.714Z,56.90
2019-05-22T09:13:57.894Z,52.50
2019-05-22T09:16:25.009Z,52.63
2019-05-22T09:18:52.044Z,49.23
2019-05-22T09:21:18.715Z,50.50
2019-05-22T09:23:45.222Z,51.60
2019-05-22T09:26:12.192Z,51.93
2019-05-22T09:28:38.482Z,63.10
2019-05-22T09:31:05.681Z,50.53
2019-05-22T09:33:34.240Z,55.50
2019-05-22T09:36:00.349Z,51.10
2019-05-22T09:38:26.755Z,52.63
2019-05-22T09:40:53.437Z,36.20
2019-05-22T09:43:19.915Z,37.97
2019-05-22T09:45:46.136Z,37.47
2019-05-22T09:48:13.689Z,32.10
2019-05-22T09:50:40.074Z,32.40
2019-05-22T09:53:07.232Z,26.87
2019-05-22T09:55:34.631Z,24.43
2019-05-22T09:58:00.799Z,34.63
2019-05-22T10:00:29.256Z,21.80
2019-05-22T10:02:55.782Z,22.40
2019-05-22T10:05:22.173Z,33.63
2019-05-22T10:07:59.784Z,25.10
2019-05-22T10:10:17.951Z,30.73
2019-05-22T10:12:44.627Z,14.30
2019-05-22T10:15:12.307Z,16.30
2019-05-22T10:17:41.888Z,22.67
2019-05-22T10:20:10.352Z,29.23
2019-05-22T10:22:37.247Z,32.93
2019-05-22T10:25:15.919Z,25.77
2019-05-22T10:27:33.774Z,38.13
2019-05-22T10:30:00.204Z,32.73
2019-05-22T10:32:31.857Z,42.87
2019-05-22T10:34:57.853Z,36.10
2019-05-22T10:37:24.062Z,46.87
2019-05-22T10:39:50.538Z,38.07
2019-05-22T10:42:16.720Z,31.87
2019-05-22T10:44:42.928Z,38.67
2019-05-22T10:47:10.432Z,49.07
2019-05-22T10:49:36.586Z,33.47
2019-05-22T10:52:03.293Z,23.63
2019-05-22T10:54:29.514Z,20.90
2019-05-22T10:56:55.899Z,10.80
2019-05-22T10:59:22.335Z,15.30
2019-05-22T11:01:48.610Z,10.90
2019-05-22T11:04:19.583Z,8.40
2019-05-22T11:06:46.230Z,11.53
2019-05-22T11:09:13.040Z,16.43
2019-05-22T11:11:40.957Z,13.13
2019-05-22T11:14:09.576Z,11.07
2019-05-22T11:16:36.582Z,11.13
2019-05-22T11:19:03.844Z,8.90
2019-05-22T11:21:31.443Z,4.43
2019-05-22T11:23:57.928Z,7.90
2019-05-22T11:26:24.607Z,8.43
2019-05-22T11:28:51.693Z,10.63
2019-05-22T11:31:17.895Z,10.03
2019-05-22T11:33:44.067Z,8.87
2019-05-22T11:36:11.091Z,13.30
2019-05-22T11:38:37.484Z,13.27
2019-05-22T11:41:04.266Z,11.00
2019-05-22T11:43:30.573Z,8.70
2019-05-22T11:45:57.349Z,12.77
2019-05-22T11:48:23.626Z,12.57
2019-05-22T11:50:50.642Z,13.30
2019-05-22T11:53:16.836Z,11.67
2019-05-22T11:55:45.926Z,17.67
2019-05-22T11:58:11.567Z,7.70
2019-05-22T12:00:38.050Z,17.13
2019-05-22T12:03:05.155Z,10.00
2019-05-22T12:05:31.847Z,11.47
2019-05-22T12:07:58.123Z,11.57
2019-05-22T12:10:24.844Z,9.73
2019-05-22T12:12:53.219Z,13.60
2019-05-22T12:15:21.779Z,13.60
2019-05-22T12:17:47.959Z,7.73
2019-05-22T12:20:14.759Z,9.17
2019-05-22T12:22:41.441Z,11.17
2019-05-22T12:25:09.025Z,15.83
2019-05-22T12:27:35.415Z,8.33
2019-05-22T12:30:04.097Z,13.67
2019-05-22T12:32:30.787Z,11.63
2019-05-22T12:34:58.303Z,12.93
2019-05-22T12:37:24.871Z,10.73
2019-05-22T12:39:51.064Z,13.70
2019-05-22T12:42:19.163Z,11.83
2019-05-22T12:44:45.958Z,12.00
2019-05-22T12:47:13.239Z,22.40
2019-05-22T12:49:39.845Z,13.40
2019-05-22T12:52:08.136Z,11.43
2019-05-22T12:54:46.141Z,7.80
2019-05-22T12:57:02.618Z,9.63
2019-05-22T12:59:28.799Z,11.80
2019-05-22T13:01:55.386Z,8.83
2019-05-22T13:04:22.888Z,9.37
2019-05-22T13:06:49.368Z,10.57
2019-05-22T13:09:15.639Z,8.70
2019-05-22T13:11:42.247Z,11.53
2019-05-22T13:14:08.910Z,15.90
2019-05-22T13:16:35.099Z,11.87
2019-05-22T13:19:01.340Z,14.30
2019-05-22T13:21:29.570Z,9.40
2019-05-22T13:23:55.754Z,10.17
2019-05-22T13:26:21.960Z,12.77
2019-05-22T13:28:48.522Z,8.27
2019-05-22T13:31:15.321Z,6.63
2019-05-22T13:33:43.206Z,9.77
2019-05-22T13:36:09.413Z,9.80
2019-05-22T13:38:36.315Z,8.73
2019-05-22T13:41:03.883Z,7.33
2019-05-22T13:43:30.658Z,11.13
2019-05-22T13:45:57.131Z,10.43
2019-05-22T13:48:24.068Z,7.57
2019-05-22T13:50:50.292Z,8.67
2019-05-22T13:53:18.828Z,10.00
2019-05-22T13:55:45.272Z,7.33
2019-05-22T13:58:11.654Z,9.93
2019-05-22T14:00:38.096Z,8.77
2019-05-22T14:03:04.504Z,11.47
2019-05-22T14:05:32.581Z,11.63
2019-05-22T14:07:58.905Z,7.43
2019-05-22T14:10:26.771Z,8.70
2019-05-22T14:12:53.838Z,11.43
2019-05-22T14:15:20.604Z,9.13
2019-05-22T14:17:47.092Z,8.67
2019-05-22T14:20:13.490Z,11.30
2019-05-22T14:22:39.770Z,9.63
2019-05-22T14:25:06.170Z,9.23
2019-05-22T14:27:32.337Z,8.33
2019-05-22T14:29:58.498Z,6.70
2019-05-22T14:32:30.152Z,4.03
2019-05-22T14:34:52.887Z,7.67
2019-05-22T14:37:19.272Z,6.33
2019-05-22T14:39:45.715Z,6.40
2019-05-22T14:42:13.878Z,11.27
2019-05-22T14:44:40.074Z,6.53
2019-05-22T14:47:14.342Z,8.57
2019-05-22T14:49:34.279Z,6.83
2019-05-22T14:52:00.464Z,9.33
2019-05-22T14:54:26.759Z,7.70
2019-05-22T14:56:53.092Z,9.93
2019-05-22T14:59:19.339Z,14.03
2019-05-22T15:01:45.551Z,6.30
2019-05-22T15:04:11.919Z,7.10
2019-05-22T15:06:38.853Z,6.57
2019-05-22T15:09:06.378Z,7.63
2019-05-22T15:11:32.609Z,9.27
2019-05-22T15:13:58.737Z,5.03
2019-05-22T15:16:25.166Z,6.13
2019-05-22T15:18:51.439Z,7.73
2019-05-22T15:21:17.810Z,5.33
2019-05-22T15:23:44.299Z,5.00
2019-05-22T15:26:10.593Z,6.97
2019-05-22T15:28:36.954Z,4.50
2019-05-22T15:31:03.392Z,4.90
2019-05-22T15:33:30.735Z,4.90
2019-05-22T15:35:57.460Z,3.30
2019-05-22T15:38:24.084Z,2.30
2019-05-22T15:40:51.360Z,2.07
2019-05-22T15:43:17.731Z,2.07
2019-05-22T15:45:44.918Z,2.23
2019-05-22T15:48:14.112Z,1.37
2019-05-22T15:50:40.505Z,0.63
2019-05-22T15:53:11.730Z,1.50
2019-05-22T15:55:37.695Z,0.80
2019-05-22T15:58:04.896Z,1.27
2019-05-22T16:00:33.746Z,1.77
2019-05-22T16:03:04.803Z,1.50
2019-05-22T16:05:31.286Z,2.13
2019-05-22T16:07:57.485Z,1.83
2019-05-22T16:10:25.566Z,3.37
2019-05-22T16:12:52.739Z,2.60
2019-05-22T16:15:19.260Z,1.87
2019-05-22T16:17:47.796Z,2.80
2019-05-22T16:20:14.070Z,2.10
2019-05-22T16:22:40.471Z,3.37
2019-05-22T16:25:07.450Z,5.17
2019-05-22T16:27:33.927Z,4.80
2019-05-22T16:30:01.198Z,2.57
2019-05-22T16:32:27.376Z,3.93
2019-05-22T16:34:53.562Z,3.17
2019-05-22T16:37:19.755Z,2.83
2019-05-22T16:39:49.876Z,4.13
2019-05-22T16:42:14.896Z,2.67
2019-05-22T16:44:41.518Z,5.50
2019-05-22T16:47:09.300Z,3.23
2019-05-22T16:49:35.674Z,3.90
2019-05-22T16:52:03.499Z,3.07
2019-05-22T16:54:30.381Z,4.13
2019-05-22T16:56:56.855Z,5.43
2019-05-22T16:59:23.373Z,4.13
2019-05-22T17:01:59.874Z,2.97
2019-05-22T17:04:17.932Z,2.77
2019-05-22T17:06:44.737Z,6.40
2019-05-22T17:09:11.707Z,3.23
2019-05-22T17:11:38.286Z,2.47
2019-05-22T17:14:06.302Z,1.30
2019-05-22T17:16:34.370Z,3.50
2019-05-22T17:19:01.619Z,2.43
2019-05-22T17:21:28.369Z,1.50
2019-05-22T17:23:56.551Z,1.63
2019-05-22T17:26:23.127Z,1.77
2019-05-22T17:28:49.351Z,3.37
2019-05-22T17:31:15.807Z,1.77
2019-05-22T17:33:42.981Z,1.77
2019-05-22T17:36:09.486Z,2.30
2019-05-22T17:38:35.703Z,1.33
2019-05-22T17:41:03.125Z,2.57
2019-05-22T17:43:29.642Z,3.27
2019-05-22T17:45:55.915Z,1.70
2019-05-22T17:48:22.090Z,4.53
2019-05-22T17:50:48.533Z,1.73
2019-05-22T17:53:15.717Z,0.93
2019-05-22T17:55:42.917Z,3.73
2019-05-22T17:58:09.510Z,1.07
2019-05-22T18:00:37.591Z,1.43
2019-05-22T18:03:04.270Z,0.83
2019-05-22T18:05:32.381Z,1.20
2019-05-22T18:07:58.670Z,0.70
2019-05-22T18:10:25.339Z,2.17
2019-05-22T18:12:51.562Z,1.13
2019-05-22T18:15:18.311Z,1.53
2019-05-22T18:17:44.682Z,0.93
2019-05-22T18:20:12.170Z,1.43
2019-05-22T18:22:38.394Z,2.33
2019-05-22T18:25:05.835Z,0.73
2019-05-22T18:27:32.445Z,1.20
2019-05-22T18:29:58.631Z,1.57
2019-05-22T18:32:24.944Z,1.53
2019-05-22T18:34:51.130Z,0.83
2019-05-22T18:37:17.302Z,1.10
2019-05-22T18:39:43.683Z,1.23
2019-05-22T18:42:10.585Z,0.50
2019-05-22T18:44:36.919Z,1.60
2019-05-22T18:47:03.605Z,1.10
2019-05-22T18:49:29.819Z,0.70
2019-05-22T18:51:56.391Z,1.20
2019-05-22T18:54:22.633Z,1.83
2019-05-22T18:56:48.903Z,3.53
2019-05-22T18:59:15.074Z,1.10
2019-05-22T19:01:41.250Z,3.60
2019-05-22T19:04:07.463Z,2.17
2019-05-22T19:06:33.639Z,1.47
2019-05-22T19:09:00.070Z,2.90
2019-05-22T19:11:26.489Z,1.33
2019-05-22T19:13:52.667Z,1.20
2019-05-22T19:16:19.142Z,3.03
2019-05-22T19:18:45.634Z,2.77
2019-05-22T19:21:12.806Z,1.30
2019-05-22T19:23:39.379Z,1.43
2019-05-22T19:26:06.096Z,1.03
2019-05-22T19:28:42.868Z,3.73
2019-05-22T19:31:00.337Z,1.00
2019-05-22T19:33:26.699Z,3.97
2019-05-22T19:35:53.374Z,4.77
2019-05-22T19:38:22.777Z,3.43
2019-05-22T19:40:48.363Z,2.60
2019-05-22T19:43:14.748Z,2.73
2019-05-22T19:45:41.151Z,1.67
2019-05-22T19:48:07.958Z,2.77
2019-05-22T19:50:36.236Z,1.50
2019-05-22T19:53:18.258Z,3.30
2019-05-22T19:55:32.922Z,3.77
2019-05-22T19:57:59.402Z,4.63
2019-05-22T20:00:25.875Z,4.23
2019-05-22T20:02:52.587Z,2.67
2019-05-22T20:05:19.374Z,3.13
2019-05-22T20:07:45.542Z,3.00
2019-05-22T20:10:13.203Z,2.20
2019-05-22T20:12:39.766Z,2.70
2019-05-22T20:15:07.750Z,2.60
2019-05-22T20:17:34.566Z,3.93
2019-05-22T20:20:00.846Z,3.03
2019-05-22T20:22:28.370Z,1.33
2019-05-22T20:24:54.894Z,3.30
2019-05-22T20:27:21.169Z,4.27
2019-05-22T20:29:47.362Z,2.50
2019-05-22T20:32:14.971Z,2.00
2019-05-22T20:34:41.147Z,2.03
2019-05-22T20:37:07.465Z,1.97
2019-05-22T20:39:33.795Z,1.43
2019-05-22T20:42:00.374Z,3.33
2019-05-22T20:44:27.677Z,2.07
2019-05-22T20:46:55.025Z,1.73
2019-05-22T20:49:22.177Z,2.27
2019-05-22T20:51:48.518Z,8.03
2019-05-22T20:54:14.847Z,1.87
2019-05-22T20:56:43.326Z,1.87
2019-05-22T20:59:10.103Z,2.73
2019-05-22T21:01:36.490Z,1.80
2019-05-22T21:04:03.470Z,1.97
2019-05-22T21:06:29.955Z,4.03
2019-05-22T21:08:56.760Z,3.80
2019-05-22T21:11:24.739Z,3.13
2019-05-22T21:13:52.119Z,3.03
2019-05-22T21:16:19.122Z,3.80
2019-05-22T21:18:47.732Z,3.47
2019-05-22T21:21:14.494Z,4.60
2019-05-22T21:23:41.187Z,5.73
2019-05-22T21:26:08.062Z,4.03
2019-05-22T21:28:34.930Z,2.43
2019-05-22T21:31:01.752Z,3.57
2019-05-22T21:33:28.019Z,6.47
2019-05-22T21:35:54.397Z,5.13
2019-05-22T21:38:20.795Z,3.47
2019-05-22T21:40:47.462Z,4.33
2019-05-22T21:43:14.953Z,8.40
2019-05-22T21:45:42.406Z,6.73
2019-05-22T21:48:08.585Z,3.80
2019-05-22T21:50:34.768Z,7.27
2019-05-22T21:53:01.092Z,9.20
2019-05-22T21:55:27.726Z,5.50
2019-05-22T21:57:53.907Z,10.23
2019-05-22T22:00:25.435Z,5.60
2019-05-22T22:02:53.515Z,4.10
2019-05-22T22:05:20.395Z,6.20
2019-05-22T22:07:46.914Z,4.13
2019-05-22T22:10:15.696Z,4.27
2019-05-22T22:12:42.265Z,4.13
2019-05-22T22:15:10.075Z,4.13
2019-05-22T22:17:36.256Z,5.40
2019-05-22T22:20:06.234Z,11.17
2019-05-22T22:22:33.443Z,8.07
2019-05-22T22:25:01.575Z,9.27
2019-05-22T22:27:28.210Z,5.13
2019-05-22T22:29:55.280Z,12.47
2019-05-22T22:32:23.382Z,7.03
2019-05-22T22:34:49.742Z,5.93
2019-05-22T22:37:17.543Z,4.37
2019-05-22T22:39:45.264Z,4.50
2019-05-22T22:42:13.440Z,8.73
2019-05-22T22:44:42.202Z,5.57
2019-05-22T22:47:10.254Z,8.40
2019-05-22T22:49:38.226Z,7.13
2019-05-22T22:52:05.736Z,8.43
2019-05-22T22:54:32.018Z,6.90
2019-05-22T22:56:58.202Z,5.90
2019-05-22T22:59:24.933Z,10.67
2019-05-22T23:01:52.803Z,6.17
2019-05-22T23:04:20.877Z,8.67
2019-05-22T23:06:47.387Z,8.90
2019-05-22T23:09:14.768Z,5.40
2019-05-22T23:11:41.460Z,6.83
2019-05-22T23:14:08.610Z,11.37
2019-05-22T23:16:35.595Z,6.60
2019-05-22T23:19:06.289Z,10.10
2019-05-22T23:21:33.343Z,8.47
2019-05-22T23:24:00.030Z,6.40
2019-05-22T23:26:29.580Z,6.63
2019-05-22T23:28:55.919Z,7.30
2019-05-22T23:31:23.298Z,7.20
2019-05-22T23:33:50.366Z,9.53
2019-05-22T23:36:17.884Z,5.93
2019-05-22T23:38:44.758Z,7.80
2019-05-22T23:41:11.428Z,10.87
2019-05-22T23:43:38.130Z,9.50
2019-05-22T23:46:05.903Z,6.53
2019-05-22T23:48:32.772Z,10.33
2019-05-22T23:50:59.078Z,9.67
2019-05-22T23:53:26.455Z,7.37
2019-05-22T23:55:53.643Z,6.57
2019-05-22T23:58:22.034Z,11.60
